Time;durP1;ratioP1;P1;durP2;ratioP2;P2;SDS_P1;SDS_P2;PMS_P1;PMS_P2;Temp;Humidity;BMP_temperature;BMP_pressure;BME280_temperature;BME280_humidity;BME280_pressure;Samples;Min_cycle;Max_cycle;Signal;HPM_P1;HPM_P2
2022/12/20 00:00:16;;;;;;;7.83;5.77;;;7.20;56.70;;;;;;5012283;28;20176;-81
2022/12/20 00:02:42;;;;;;;8.00;6.10;;;6.60;65.60;;;;;;5012311;28;20577;-80
2022/12/20 00:05:07;;;;;;;8.43;5.83;;;6.80;99.90;;;;;;5012376;28;20180;-80
2022/12/20 00:07:33;;;;;;;9.10;6.40;;;6.80;86.80;;;;;;5013418;28;20207;-79
2022/12/20 00:09:59;;;;;;;8.83;6.40;;;7.50;87.80;;;;;;5013283;28;20346;-80
2022/12/20 00:12:24;;;;;;;9.10;6.00;;;6.60;93.10;;;;;;5013329;28;20175;-78
2022/12/20 00:14:50;;;;;;;8.17;6.47;;;7.50;99.90;;;;;;5011045;28;20191;-80
2022/12/20 00:17:15;;;;;;;7.93;5.87;;;6.40;99.90;;;;;;5010994;28;20241;-81
2022/12/20 00:19:43;;;;;;;8.03;6.57;;;6.70;87.60;;;;;;5014241;28;20179;-80
2022/12/20 00:22:09;;;;;;;7.57;6.30;;;7.40;84.20;;;;;;5014879;28;20183;-80
2022/12/20 00:24:34;;;;;;;7.90;6.50;;;6.70;79.70;;;;;;5013040;28;20711;-82
2022/12/20 00:27:00;;;;;;;8.93;6.83;;;6.80;99.90;;;;;;5015354;28;20230;-81
2022/12/20 00:29:26;;;;;;;9.10;6.80;;;6.70;99.90;;;;;;5013193;28;20219;-80
2022/12/20 00:31:51;;;;;;;8.73;6.43;;;7.20;99.90;;;;;;5014340;28;20254;-79
2022/12/20 00:34:17;;;;;;;9.50;6.50;;;6.80;99.90;;;;;;5013173;28;20211;-81
2022/12/20 00:36:43;;;;;;;7.97;6.23;;;7.30;99.90;;;;;;5012952;28;20180;-81
2022/12/20 00:39:09;;;;;;;10.50;6.80;;;6.80;99.10;;;;;;5014734;28;20187;-81
2022/12/20 00:41:35;;;;;;;8.73;6.87;;;6.80;99.90;;;;;;5014373;28;20283;-81
2022/12/20 00:44:03;;;;;;;8.13;6.83;;;6.60;99.90;;;;;;5013396;28;21271;-81
2022/12/20 00:46:30;;;;;;;8.33;5.93;;;6.40;99.90;;;;;;5029593;28;20206;-80
2022/12/20 00:48:56;;;;;;;9.03;6.47;;;6.70;95.60;;;;;;5010823;28;20183;-80
2022/12/20 00:51:27;;;;;;;10.43;6.07;;;6.70;99.90;;;;;;5010523;28;20194;-80
2022/12/20 00:53:53;;;;;;;9.47;6.87;;;6.40;99.90;;;;;;5009351;28;20203;-80
2022/12/20 00:56:20;;;;;;;7.10;6.33;;;6.70;99.90;;;;;;5010085;28;20275;-80
2022/12/20 00:58:45;;;;;;;9.17;6.43;;;6.80;99.90;;;;;;5024573;28;20840;-80
2022/12/20 01:01:21;;;;;;;7.57;6.40;;;7.00;99.90;;;;;;5010220;28;20273;-80
2022/12/20 01:03:48;;;;;;;8.03;6.27;;;6.60;99.90;;;;;;5008142;28;20199;-78
2022/12/20 01:06:13;;;;;;;7.53;6.03;;;7.00;99.90;;;;;;5007546;28;20212;-80
2022/12/20 01:08:39;;;;;;;9.07;6.20;;;7.20;99.90;;;;;;5007849;28;20330;-80
2022/12/20 01:11:10;;;;;;;8.17;6.10;;;7.20;99.90;;;;;;5009666;28;20195;-80
2022/12/20 01:13:38;;;;;;;8.30;5.90;;;7.10;99.90;;;;;;5009147;28;20242;-80
2022/12/20 01:16:15;;;;;;;7.07;5.63;;;7.30;99.90;;;;;;5007850;28;20199;-81
2022/12/20 01:18:41;;;;;;;9.37;5.47;;;7.90;99.90;;;;;;5011763;28;20182;-80
2022/12/20 01:21:11;;;;;;;8.17;5.80;;;7.40;99.90;;;;;;5014760;28;20215;-79
2022/12/20 01:23:37;;;;;;;9.53;6.13;;;7.50;99.90;;;;;;5013803;28;20207;-78
2022/12/20 01:26:04;;;;;;;9.27;5.80;;;7.50;99.90;;;;;;5013920;28;20290;-79
2022/12/20 01:28:31;;;;;;;7.23;5.83;;;7.40;88.70;;;;;;5012859;28;20194;-78
2022/12/20 01:30:57;;;;;;;7.23;5.43;;;7.30;99.00;;;;;;5014534;28;20180;-79
2022/12/20 01:33:23;;;;;;;7.67;5.80;;;7.20;99.90;;;;;;5013033;28;20222;-79
2022/12/20 01:36:01;;;;;;;7.43;5.10;;;7.10;99.90;;;;;;5011898;28;20188;-79
2022/12/20 01:38:27;;;;;;;6.63;5.50;;;7.10;99.90;;;;;;5014382;28;20195;-79
2022/12/20 01:40:53;;;;;;;6.50;5.50;;;7.10;99.90;;;;;;5012743;28;20277;-81
2022/12/20 01:43:20;;;;;;;7.43;5.63;;;7.00;99.90;;;;;;5012924;28;20209;-79
2022/12/20 01:45:46;;;;;;;8.27;5.83;;;6.90;99.90;;;;;;5014012;28;20218;-79
2022/12/20 01:48:15;;;;;;;10.20;5.97;;;6.90;99.90;;;;;;5011817;28;20184;-81
2022/12/20 01:50:41;;;;;;;8.70;5.50;;;6.90;99.90;;;;;;5007852;28;20233;-78
2022/12/20 01:53:07;;;;;;;7.17;6.00;;;6.90;99.90;;;;;;5008709;28;20203;-80
2022/12/20 01:55:34;;;;;;;7.67;5.93;;;8.00;99.90;;;;;;5008350;28;20187;-81
2022/12/20 01:58:04;;;;;;;9.33;6.23;;;7.30;99.90;;;;;;5009794;28;20179;-81
2022/12/20 02:00:30;;;;;;;7.83;6.20;;;6.80;99.90;;;;;;5008712;28;20187;-81
2022/12/20 02:02:59;;;;;;;8.13;6.10;;;6.80;99.90;;;;;;5008272;28;20227;-80
2022/12/20 02:05:25;;;;;;;9.17;5.70;;;6.80;99.90;;;;;;5009204;28;20233;-80
2022/12/20 02:07:54;;;;;;;8.80;6.10;;;7.10;99.90;;;;;;5008371;28;20189;-80
2022/12/20 02:10:23;;;;;;;6.77;5.63;;;8.00;99.90;;;;;;5024265;28;20179;-80
2022/12/20 02:12:53;;;;;;;5.93;5.30;;;7.00;99.90;;;;;;5007945;28;20204;-80
2022/12/20 02:15:37;;;;;;;7.23;5.37;;;7.00;99.90;;;;;;5010270;28;20748;-81
2022/12/20 02:18:09;;;;;;;8.57;6.00;;;6.90;99.90;;;;;;5011248;28;20198;-80
2022/12/20 02:20:53;;;;;;;7.90;6.13;;;6.90;99.90;;;;;;5012666;28;20203;-80
2022/12/20 02:23:59;;;;;;;7.90;6.40;;;7.10;99.90;;;;;;5012121;28;20216;-81
2022/12/20 02:26:57;;;;;;;7.73;6.17;;;7.00;99.90;;;;;;5010274;28;20214;-81
2022/12/20 02:30:00;;;;;;;7.93;6.17;;;7.00;99.90;;;;;;5027841;28;20647;-81
2022/12/20 02:32:31;;;;;;;6.83;5.67;;;7.20;99.90;;;;;;5012363;28;20187;-81
2022/12/20 02:34:57;;;;;;;6.80;5.80;;;7.10;99.90;;;;;;5009954;28;20206;-81
2022/12/20 02:37:23;;;;;;;6.80;5.50;;;7.20;99.90;;;;;;5011708;28;20214;-79
2022/12/20 02:39:48;;;;;;;7.17;5.43;;;7.10;99.90;;;;;;5010402;28;20217;-81
2022/12/20 02:42:20;;;;;;;7.10;5.63;;;7.40;99.90;;;;;;5011022;28;20183;-81
2022/12/20 02:47:59;;;;;;;6.93;5.97;;;7.40;99.90;;;;;;5010281;28;20735;-80
2022/12/20 02:50:33;;;;;;;7.67;5.50;;;7.40;99.90;;;;;;5006238;28;20218;-81
2022/12/20 02:52:59;;;;;;;6.80;5.40;;;7.40;99.90;;;;;;5026812;22;20324;-79
2022/12/20 02:55:37;;;;;;;7.53;6.37;;;7.30;99.90;;;;;;5024903;28;20201;-80
2022/12/20 02:58:08;;;;;;;6.37;5.70;;;7.30;99.90;;;;;;5026784;28;20167;-80
2022/12/20 03:00:41;;;;;;;7.37;6.00;;;7.00;99.90;;;;;;5026637;28;20206;-80
2022/12/20 03:03:22;;;;;;;8.97;6.17;;;7.10;99.90;;;;;;5042606;28;20234;-79
2022/12/20 03:05:53;;;;;;;6.43;5.20;;;7.10;99.90;;;;;;5026612;28;20661;-79
2022/12/20 03:08:20;;;;;;;7.03;5.57;;;7.10;99.90;;;;;;5026917;28;20190;-79
2022/12/20 03:10:46;;;;;;;8.23;5.90;;;7.10;99.90;;;;;;5028175;28;20175;-79
2022/12/20 03:13:12;;;;;;;7.63;5.10;;;7.10;99.90;;;;;;5029120;28;20687;-80
2022/12/20 03:15:38;;;;;;;6.33;5.53;;;7.20;99.90;;;;;;5025407;28;20300;-79
2022/12/20 03:18:04;;;;;;;6.23;5.33;;;7.40;99.90;;;;;;5027188;28;21320;-80
2022/12/20 03:20:29;;;;;;;7.10;5.50;;;7.50;99.90;;;;;;5026522;28;20187;-78
2022/12/20 03:22:55;;;;;;;6.97;5.30;;;7.50;99.90;;;;;;5026923;28;20576;-79
2022/12/20 03:25:21;;;;;;;5.87;4.77;;;7.50;99.90;;;;;;5026729;28;20253;-80
2022/12/20 03:27:46;;;;;;;6.45;5.35;;;7.50;99.90;;;;;;5026460;28;20519;-80
2022/12/20 03:30:13;;;;;;;6.87;4.77;;;7.50;99.90;;;;;;5024906;28;20195;-79
2022/12/20 03:32:38;;;;;;;7.00;5.27;;;7.60;99.90;;;;;;5026707;28;20258;-80
2022/12/20 03:35:04;;;;;;;4.97;4.47;;;7.50;99.90;;;;;;5026814;28;20661;-80
2022/12/20 03:37:30;;;;;;;6.20;4.97;;;7.60;99.90;;;;;;5027352;28;20190;-80
2022/12/20 03:39:55;;;;;;;5.83;4.90;;;7.70;99.90;;;;;;5026761;28;20185;-80
2022/12/20 03:42:21;;;;;;;6.60;5.10;;;7.90;99.90;;;;;;5029266;28;20190;-80
2022/12/20 03:44:47;;;;;;;5.67;4.80;;;8.40;99.90;;;;;;5029299;28;20197;-79
2022/12/20 03:47:13;;;;;;;5.67;5.07;;;7.90;99.90;;;;;;5029347;28;20203;-81
2022/12/20 03:49:38;;;;;;;5.83;4.70;;;7.90;99.90;;;;;;5030184;28;20191;-80
2022/12/20 03:52:04;;;;;;;6.73;4.67;;;7.60;99.90;;;;;;5030012;28;20253;-80
2022/12/20 03:54:30;;;;;;;6.10;4.73;;;7.90;99.90;;;;;;5029388;28;20273;-79
2022/12/20 03:56:55;;;;;;;6.97;4.90;;;8.00;99.90;;;;;;5028336;28;20233;-79
2022/12/20 03:59:21;;;;;;;6.07;4.77;;;7.90;99.90;;;;;;5029611;28;20182;-80
2022/12/20 04:01:46;;;;;;;6.07;4.83;;;7.80;99.90;;;;;;5029147;28;20187;-81
2022/12/20 04:04:14;;;;;;;5.33;4.83;;;8.00;99.90;;;;;;5029276;28;20207;-77
2022/12/20 04:06:40;;;;;;;6.10;4.90;;;8.10;99.90;;;;;;5027850;28;20207;-80
2022/12/20 04:09:06;;;;;;;6.87;5.13;;;7.90;99.90;;;;;;5029170;28;20175;-80
2022/12/20 04:11:32;;;;;;;4.70;4.20;;;8.10;99.90;;;;;;5028040;28;20604;-79
2022/12/20 04:13:57;;;;;;;6.80;5.00;;;8.10;99.90;;;;;;5029440;28;20636;-80
2022/12/20 04:16:26;;;;;;;7.07;4.90;;;7.90;99.90;;;;;;5029679;28;20255;-80
2022/12/20 04:18:52;;;;;;;9.23;5.83;;;8.00;99.90;;;;;;5029099;28;20187;-79
2022/12/20 04:21:26;;;;;;;8.50;5.77;;;7.90;99.90;;;;;;5029124;28;20191;-80
2022/12/20 04:23:51;;;;;;;6.90;4.93;;;7.90;99.90;;;;;;5029051;28;20788;-80
2022/12/20 04:26:18;;;;;;;5.27;4.43;;;8.20;99.90;;;;;;5029428;28;20210;-80
2022/12/20 04:28:43;;;;;;;5.83;4.87;;;8.40;99.90;;;;;;5029813;28;20194;-79
2022/12/20 04:31:09;;;;;;;5.30;4.50;;;7.70;99.90;;;;;;5029271;28;20194;-79
2022/12/20 04:33:35;;;;;;;5.77;4.43;;;8.20;94.70;;;;;;5029103;28;20198;-80
2022/12/20 04:36:01;;;;;;;5.50;4.37;;;8.60;98.00;;;;;;5026702;28;20187;-81
2022/12/20 04:38:27;;;;;;;5.33;4.23;;;8.60;66.60;;;;;;5027714;28;20269;-79
2022/12/20 04:40:54;;;;;;;5.77;4.43;;;8.20;45.40;;;;;;5028095;28;20368;-79
2022/12/20 04:43:22;;;;;;;4.80;3.60;;;8.50;50.00;;;;;;5028270;28;20245;-80
2022/12/20 04:45:49;;;;;;;4.90;3.73;;;8.40;59.70;;;;;;5028797;28;20198;-79
2022/12/20 04:48:15;;;;;;;4.33;3.77;;;8.40;39.40;;;;;;5029827;28;20202;-79
2022/12/20 04:50:41;;;;;;;6.27;4.50;;;9.40;50.70;;;;;;5028739;28;20647;-79
2022/12/20 04:55:53;;;;;;;5.67;4.37;;;9.40;63.80;;;;;;5027902;28;20201;-79
2022/12/20 04:58:19;;;;;;;6.53;4.47;;;8.80;37.60;;;;;;5026692;28;20187;-80
2022/12/20 05:00:45;;;;;;;5.80;4.40;;;8.70;34.30;;;;;;5027955;28;20225;-82
2022/12/20 05:03:10;;;;;;;5.03;4.30;;;8.70;57.50;;;;;;5027229;28;20207;-79
2022/12/20 05:05:36;;;;;;;7.57;5.10;;;8.90;44.80;;;;;;5028003;28;20273;-80
2022/12/20 05:08:01;;;;;;;7.20;5.27;;;9.20;56.80;;;;;;5028051;28;20187;-77
2022/12/20 05:10:27;;;;;;;6.73;5.00;;;8.60;26.50;;;;;;5027072;28;20823;-80
2022/12/20 05:12:52;;;;;;;6.93;5.40;;;8.70;46.60;;;;;;5026808;28;20198;-80
2022/12/20 05:15:18;;;;;;;6.40;4.87;;;8.50;28.60;;;;;;5027508;28;20746;-80
2022/12/20 05:17:44;;;;;;;6.07;4.43;;;8.50;47.00;;;;;;5025298;28;20279;-81
2022/12/20 05:20:10;;;;;;;5.37;4.27;;;8.50;42.10;;;;;;5026707;28;20265;-79
2022/12/20 05:28:04;;;;;;;5.63;4.53;;;8.70;31.60;;;;;;5027145;28;20214;-80
2022/12/20 05:30:29;;;;;;;6.57;4.70;;;8.80;28.30;;;;;;5026109;28;20269;-80
2022/12/20 05:32:55;;;;;;;5.00;4.40;;;8.60;28.90;;;;;;5026462;28;20723;-81
2022/12/20 05:35:21;;;;;;;6.73;4.63;;;8.30;33.80;;;;;;5026852;28;20181;-79
2022/12/20 05:37:46;;;;;;;5.37;4.17;;;8.50;32.70;;;;;;5027683;28;20190;-80
2022/12/20 05:40:12;;;;;;;6.23;4.67;;;8.30;15.10;;;;;;5025960;28;20552;-80
2022/12/20 05:42:38;;;;;;;7.20;4.60;;;8.20;41.90;;;;;;5027245;28;20454;-79
2022/12/20 05:45:04;;;;;;;5.80;4.40;;;9.00;17.50;;;;;;5026955;28;20179;-79
2022/12/20 05:47:32;;;;;;;7.90;4.80;;;8.40;46.00;;;;;;5024602;28;20203;-80
2022/12/20 05:49:59;;;;;;;5.27;4.67;;;8.40;47.70;;;;;;5026359;28;20853;-80
2022/12/20 05:52:24;;;;;;;4.73;4.10;;;8.40;40.90;;;;;;5026529;28;20555;-80
2022/12/20 05:54:50;;;;;;;5.73;4.37;;;8.50;25.10;;;;;;5026145;28;20171;-80
2022/12/20 05:57:16;;;;;;;5.80;4.53;;;8.40;34.90;;;;;;5026549;28;20187;-80
2022/12/20 05:59:42;;;;;;;5.23;4.17;;;8.40;34.50;;;;;;5027083;28;20183;-80
2022/12/20 06:02:09;;;;;;;6.23;4.40;;;8.50;19.70;;;;;;5024645;28;20232;-81
2022/12/20 06:04:36;;;;;;;8.63;5.40;;;8.40;22.90;;;;;;5025987;28;20691;-80
2022/12/20 06:07:01;;;;;;;7.60;5.10;;;8.30;30.00;;;;;;5026493;28;20838;-80
2022/12/20 06:09:28;;;;;;;7.27;5.60;;;8.90;31.40;;;;;;5025501;28;20190;-80
2022/12/20 06:11:54;;;;;;;6.57;4.73;;;8.20;48.60;;;;;;5025135;28;20604;-80
2022/12/20 06:14:20;;;;;;;8.20;5.17;;;8.20;50.30;;;;;;5024765;28;20199;-80
2022/12/20 06:16:46;;;;;;;8.60;5.23;;;8.40;38.80;;;;;;5026238;28;21064;-80
2022/12/20 06:19:13;;;;;;;5.60;4.60;;;8.30;35.30;;;;;;5026259;28;20179;-79
2022/12/20 06:21:38;;;;;;;6.53;4.87;;;8.20;26.90;;;;;;5025362;28;20680;-80
2022/12/20 06:24:05;;;;;;;5.93;5.20;;;8.10;30.80;;;;;;5026337;28;20210;-80
2022/12/20 06:26:35;;;;;;;7.07;4.57;;;8.10;36.00;;;;;;5026809;28;20692;-80
2022/12/20 06:29:06;;;;;;;7.63;4.60;;;7.80;42.90;;;;;;5025285;28;20186;-81
2022/12/20 06:31:32;;;;;;;5.30;4.27;;;8.30;62.00;;;;;;5024978;28;20562;-80
2022/12/20 06:33:58;;;;;;;6.67;4.97;;;8.20;33.40;;;;;;5026064;28;20252;-79
2022/12/20 06:36:23;;;;;;;6.37;4.80;;;8.70;45.80;;;;;;5024891;28;20186;-79
2022/12/20 06:38:49;;;;;;;6.27;4.60;;;8.90;72.00;;;;;;5026346;28;20185;-79
2022/12/20 06:41:15;;;;;;;5.63;4.53;;;8.20;16.70;;;;;;5026903;28;20179;-80
2022/12/20 06:43:40;;;;;;;5.90;5.00;;;8.30;28.00;;;;;;5026100;28;20207;-80
2022/12/20 06:46:06;;;;;;;6.27;4.47;;;8.20;55.00;;;;;;5026421;28;20203;-79
2022/12/20 06:48:31;;;;;;;7.33;5.20;;;8.30;59.30;;;;;;5026132;28;20619;-79
2022/12/20 06:50:57;;;;;;;9.20;5.30;;;8.80;64.40;;;;;;5026447;28;20205;-80
2022/12/20 06:53:23;;;;;;;5.70;4.47;;;8.70;75.20;;;;;;5025008;28;20229;-79
2022/12/20 06:55:49;;;;;;;6.87;4.80;;;8.30;50.70;;;;;;5025727;28;20313;-80
2022/12/20 06:58:15;;;;;;;5.50;4.60;;;8.80;77.30;;;;;;5026047;28;20183;-79
2022/12/20 07:00:41;;;;;;;5.23;3.73;;;8.40;66.90;;;;;;5026016;28;20190;-79
2022/12/20 07:03:07;;;;;;;4.60;4.10;;;8.20;40.40;;;;;;5024235;28;20199;-80
2022/12/20 07:05:33;;;;;;;13.00;4.67;;;8.70;58.50;;;;;;5025665;28;20189;-79
2022/12/20 07:07:58;;;;;;;4.87;4.33;;;8.50;89.80;;;;;;5026585;28;20196;-78
2022/12/20 07:10:24;;;;;;;6.43;4.33;;;8.60;38.60;;;;;;5025772;28;20509;-79
2022/12/20 07:12:51;;;;;;;6.63;4.37;;;8.50;25.00;;;;;;5027340;28;20213;-81
2022/12/20 07:15:17;;;;;;;5.13;4.63;;;8.30;59.60;;;;;;5029039;28;20292;-80
2022/12/20 07:17:43;;;;;;;5.70;4.60;;;8.60;61.00;;;;;;5028359;28;20274;-80
2022/12/20 07:20:09;;;;;;;5.37;4.50;;;8.30;58.80;;;;;;5028579;28;20182;-82
2022/12/20 07:22:34;;;;;;;5.03;4.47;;;8.20;67.20;;;;;;5029159;28;20183;-80
2022/12/20 07:25:00;;;;;;;4.93;4.43;;;8.10;63.10;;;;;;5029621;28;20668;-80
2022/12/20 07:27:26;;;;;;;6.33;4.67;;;8.10;59.60;;;;;;5029198;28;20206;-79
2022/12/20 07:29:51;;;;;;;4.57;3.97;;;8.70;89.40;;;;;;5028201;28;20683;-80
2022/12/20 07:32:17;;;;;;;6.53;4.10;;;8.70;86.20;;;;;;5025156;28;20199;-79
2022/12/20 07:34:43;;;;;;;5.50;4.07;;;8.20;65.30;;;;;;5027840;28;20203;-80
2022/12/20 07:37:08;;;;;;;6.20;5.07;;;8.10;86.70;;;;;;5026379;28;20183;-80
2022/12/20 07:39:34;;;;;;;5.33;4.47;;;8.10;57.60;;;;;;5028698;28;20193;-80
2022/12/20 07:41:59;;;;;;;5.27;4.07;;;8.00;92.30;;;;;;5025656;28;20274;-81
2022/12/20 07:44:25;;;;;;;5.63;4.00;;;8.10;59.90;;;;;;5023446;28;20226;-81
2022/12/20 07:46:51;;;;;;;5.63;3.87;;;8.60;65.20;;;;;;5027110;28;20633;-80
2022/12/20 07:49:16;;;;;;;5.03;3.70;;;8.20;64.50;;;;;;5025784;28;20187;-80
2022/12/20 07:51:49;;;;;;;6.43;4.00;;;8.20;58.70;;;;;;5026190;28;20175;-78
2022/12/20 07:54:30;;;;;;;4.50;3.37;;;8.30;56.00;;;;;;5025644;28;20301;-80
2022/12/20 07:57:03;;;;;;;5.83;4.30;;;8.20;70.90;;;;;;5026690;28;20752;-79
2022/12/20 07:59:44;;;;;;;5.53;3.80;;;8.10;85.00;;;;;;5027959;28;20221;-77
2022/12/20 08:02:15;;;;;;;20.97;13.50;;;8.20;99.30;;;;;;5027983;28;20232;-78
2022/12/20 08:04:41;;;;;;;9.23;6.70;;;8.30;99.90;;;;;;5027709;28;20277;-79
2022/12/20 08:07:08;;;;;;;5.80;3.93;;;8.20;99.90;;;;;;5026583;28;20289;-78
2022/12/20 08:09:38;;;;;;;5.37;4.17;;;8.30;86.60;;;;;;5028051;28;20198;-79
2022/12/20 08:12:06;;;;;;;7.07;4.33;;;8.20;99.90;;;;;;5027838;28;20181;-77
2022/12/20 08:14:32;;;;;;;5.53;4.50;;;8.10;86.80;;;;;;5027625;28;20222;-80
2022/12/20 08:16:57;;;;;;;6.07;4.67;;;8.10;99.90;;;;;;5026241;28;20664;-80
2022/12/20 08:19:24;;;;;;;5.03;3.90;;;8.60;83.80;;;;;;5027890;28;20203;-80
2022/12/20 08:21:50;;;;;;;5.03;4.10;;;8.40;91.00;;;;;;5027937;28;20974;-78
2022/12/20 08:24:16;;;;;;;4.70;4.20;;;8.20;77.40;;;;;;5026350;28;20712;-80
2022/12/20 08:26:42;;;;;;;5.17;4.03;;;8.30;99.90;;;;;;5027975;28;20206;-80
2022/12/20 08:29:08;;;;;;;5.23;3.63;;;8.40;80.20;;;;;;5028101;28;20809;-80
2022/12/20 08:31:43;;;;;;;6.47;3.93;;;8.40;76.60;;;;;;5027243;28;20237;-78
2022/12/20 08:34:08;;;;;;;4.33;3.80;;;8.50;91.80;;;;;;5027519;28;20285;-79
2022/12/20 08:36:34;;;;;;;4.97;4.20;;;8.50;57.60;;;;;;5026005;28;20278;-80
2022/12/20 08:39:04;;;;;;;4.77;3.53;;;8.30;74.30;;;;;;5026487;28;20680;-79
2022/12/20 08:41:29;;;;;;;4.43;3.50;;;8.40;45.80;;;;;;5027515;28;20209;-79
2022/12/20 08:43:55;;;;;;;5.10;4.10;;;8.90;91.20;;;;;;5027889;28;20680;-79
2022/12/20 08:46:21;;;;;;;5.07;3.30;;;8.50;70.10;;;;;;5025399;28;20222;-79
2022/12/20 08:48:46;;;;;;;4.17;3.33;;;8.60;34.90;;;;;;5028435;28;20673;-79
2022/12/20 08:51:12;;;;;;;4.20;3.33;;;9.00;45.90;;;;;;5026229;28;20217;-79
2022/12/20 08:53:37;;;;;;;5.03;4.20;;;9.10;34.00;;;;;;5026841;28;20305;-79
2022/12/20 08:56:09;;;;;;;6.03;3.40;;;9.50;49.80;;;;;;5027346;28;20197;-79
2022/12/20 08:58:36;;;;;;;4.80;3.70;;;8.90;39.10;;;;;;5027611;28;20261;-79
2022/12/20 09:01:05;;;;;;;5.70;5.00;;;8.80;37.20;;;;;;5027592;28;20178;-81
2022/12/20 09:03:31;;;;;;;4.50;3.33;;;8.90;64.10;;;;;;5026781;28;20203;-79
2022/12/20 09:05:58;;;;;;;5.87;3.83;;;8.90;32.40;;;;;;5026632;28;20183;-78
2022/12/20 09:08:24;;;;;;;4.83;3.43;;;8.80;42.10;;;;;;5027108;28;20218;-79
2022/12/20 09:10:50;;;;;;;4.63;3.70;;;8.90;49.10;;;;;;5027216;28;20599;-77
2022/12/20 09:13:16;;;;;;;6.17;3.50;;;9.40;54.70;;;;;;5027223;28;20203;-79
2022/12/20 09:15:43;;;;;;;6.03;3.40;;;8.90;48.20;;;;;;5026403;28;20214;-79
2022/12/20 09:18:09;;;;;;;3.93;3.47;;;9.10;53.40;;;;;;5026979;28;20183;-78
2022/12/20 09:20:35;;;;;;;5.50;3.40;;;9.20;62.90;;;;;;5027200;28;20175;-80
2022/12/20 09:23:00;;;;;;;4.23;3.70;;;8.80;47.30;;;;;;5026896;28;20209;-78
2022/12/20 09:25:27;;;;;;;4.30;3.40;;;8.90;50.40;;;;;;5027156;28;20548;-79
2022/12/20 09:27:56;;;;;;;4.23;3.27;;;8.90;43.00;;;;;;5027130;28;20260;-78
2022/12/20 09:30:22;;;;;;;5.80;3.00;;;8.90;38.10;;;;;;5025046;28;20179;-79
2022/12/20 09:32:48;;;;;;;4.10;3.43;;;9.00;42.10;;;;;;5026235;28;20580;-80
2022/12/20 09:35:13;;;;;;;4.13;3.30;;;9.40;45.40;;;;;;5023631;28;20237;-78
2022/12/20 09:37:40;;;;;;;3.50;3.20;;;9.10;39.00;;;;;;5026294;28;20198;-79
2022/12/20 09:40:09;;;;;;;3.57;3.17;;;9.10;34.00;;;;;;5026787;28;20210;-78
2022/12/20 09:42:35;;;;;;;4.70;3.40;;;9.20;30.10;;;;;;5025427;28;20273;-79
2022/12/20 09:45:11;;;;;;;3.63;3.33;;;9.20;37.40;;;;;;5025582;28;20254;-79
2022/12/20 09:47:37;;;;;;;4.67;3.40;;;9.30;34.10;;;;;;5025173;28;20205;-80
2022/12/20 09:50:06;;;;;;;4.47;3.50;;;9.30;27.90;;;;;;5023841;28;20183;-78
2022/12/20 09:52:50;;;;;;;4.23;3.50;;;9.20;25.80;;;;;;5023822;28;20198;-78
2022/12/20 09:55:26;;;;;;;5.57;3.40;;;9.30;27.60;;;;;;5026299;28;20186;-80
2022/12/20 09:58:05;;;;;;;3.73;3.30;;;9.30;21.50;;;;;;5027487;28;20183;-79
2022/12/20 10:00:35;;;;;;;6.00;3.33;;;9.50;14.60;;;;;;5027253;28;20190;-78
2022/12/20 10:03:04;;;;;;;4.20;3.27;;;9.60;12.20;;;;;;5027478;28;20474;-80
2022/12/20 10:05:48;;;;;;;4.70;3.57;;;9.60;10.40;;;;;;5025735;28;20190;-79
2022/12/20 10:08:24;;;;;;;5.13;3.10;;;9.60;9.10;;;;;;5033874;28;20240;-79
2022/12/20 10:10:56;;;;;;;4.93;3.30;;;9.50;12.90;;;;;;5025983;28;20181;-80
2022/12/20 10:13:55;;;;;;;3.27;2.93;;;9.20;13.70;;;;;;5026768;28;20285;-80
2022/12/20 10:16:41;;;;;;;3.53;3.03;;;9.50;11.70;;;;;;5026944;28;20684;-79
2022/12/20 10:19:25;;;;;;;4.63;3.30;;;9.40;15.00;;;;;;5025240;28;20174;-81
2022/12/20 10:22:10;;;;;;;4.00;2.97;;;9.40;13.40;;;;;;5023874;28;20178;-78
2022/12/20 10:24:37;;;;;;;3.57;2.97;;;9.50;15.60;;;;;;5026554;28;20198;-79
2022/12/20 10:27:16;;;;;;;4.53;2.97;;;9.50;11.10;;;;;;5026279;28;20215;-80
2022/12/20 10:29:42;;;;;;;3.40;3.00;;;9.70;6.60;;;;;;5026933;28;20179;-80
2022/12/20 10:32:18;;;;;;;4.77;3.20;;;9.50;6.60;;;;;;5025082;28;20191;-80
2022/12/20 10:34:58;;;;;;;3.70;2.87;;;9.70;5.00;;;;;;5026523;28;20209;-81
2022/12/20 10:37:24;;;;;;;3.67;3.00;;;9.70;2.50;;;;;;5028707;28;20660;-80
2022/12/20 10:39:51;;;;;;;4.13;2.83;;;10.00;1.60;;;;;;5029057;28;20187;-80
2022/12/20 10:42:37;;;;;;;3.80;3.10;;;10.10;1.00;;;;;;5027299;28;20181;-80
2022/12/20 10:45:25;;;;;;;4.17;3.53;;;10.00;1.00;;;;;;5022237;28;20179;-77
2022/12/20 10:47:57;;;;;;;6.87;3.27;;;10.00;1.00;;;;;;5025796;28;20352;-82
2022/12/20 10:50:24;;;;;;;4.87;3.30;;;10.00;1.00;;;;;;5026799;28;20262;-80
2022/12/20 10:53:08;;;;;;;3.80;2.97;;;10.70;1.00;;;;;;5027990;28;20236;-80
2022/12/20 10:55:35;;;;;;;2.93;2.47;;;10.30;1.00;;;;;;5030082;28;20604;-79
2022/12/20 10:58:16;;;;;;;2.97;2.67;;;10.10;1.00;;;;;;5027421;28;20572;-79
2022/12/20 11:00:43;;;;;;;3.87;2.60;;;10.30;1.00;;;;;;5029324;28;20191;-80
2022/12/20 11:03:11;;;;;;;5.87;3.50;;;10.50;1.00;;;;;;5028255;28;20217;-79
2022/12/20 11:05:37;;;;;;;3.87;3.23;;;10.50;1.00;;;;;;5020846;28;20250;-82
2022/12/20 11:08:15;;;;;;;3.87;2.70;;;10.50;1.00;;;;;;5025792;28;20213;-79
2022/12/20 11:10:41;;;;;;;3.70;2.67;;;11.00;1.00;;;;;;5028845;28;20174;-79
2022/12/20 11:13:28;;;;;;;3.23;2.40;;;10.60;1.00;;;;;;5028986;28;20230;-81
2022/12/20 11:15:55;;;;;;;2.73;2.27;;;10.50;1.00;;;;;;5030031;28;20174;-80
2022/12/20 11:18:34;;;;;;;2.47;2.27;;;10.60;1.00;;;;;;5028379;28;20717;-80
2022/12/20 11:21:06;;;;;;;4.10;2.50;;;10.70;1.00;;;;;;5030466;28;20167;-79
2022/12/20 11:23:43;;;;;;;2.63;2.40;;;10.80;1.00;;;;;;5029504;28;20246;-79
2022/12/20 11:26:39;;;;;;;4.20;2.75;;;10.90;1.00;;;;;;5030132;28;20242;-80
2022/12/20 11:29:20;;;;;;;3.20;2.63;;;10.70;1.00;;;;;;5031023;28;20187;-80
2022/12/20 11:32:04;;;;;;;3.60;2.70;;;10.70;1.00;;;;;;5030071;28;20179;-79
2022/12/20 11:35:06;;;;;;;2.78;2.50;;;10.50;1.00;;;;;;5030676;28;20203;-80
2022/12/20 11:37:59;;;;;;;3.53;2.30;;;10.50;1.00;;;;;;5036493;28;20206;-80
2022/12/20 11:40:51;;;;;;;2.77;2.27;;;10.40;1.00;;;;;;5030647;28;20191;-78
2022/12/20 11:43:40;;;;;;;4.10;2.20;;;10.60;1.00;;;;;;5030931;28;20203;-79
2022/12/20 11:46:18;;;;;;;4.93;2.50;;;10.60;1.00;;;;;;5036123;28;20230;-80
2022/12/20 11:49:19;;;;;;;4.97;2.63;;;10.80;1.00;;;;;;5028988;28;20186;-80
2022/12/20 11:51:55;;;;;;;2.57;2.37;;;10.90;1.00;;;;;;5007423;28;20206;-80
2022/12/20 11:54:40;;;;;;;3.37;2.30;;;10.80;1.00;;;;;;5028861;28;20248;-79
2022/12/20 11:57:17;;;;;;;3.00;2.10;;;10.80;1.00;;;;;;5029827;28;20183;-79
2022/12/20 11:59:45;;;;;;;2.37;2.17;;;10.80;1.00;;;;;;5029307;28;20237;-79
2022/12/20 12:02:13;;;;;;;2.80;2.13;;;10.80;1.00;;;;;;5027289;28;20266;-80
2022/12/20 12:04:46;;;;;;;2.60;2.10;;;10.80;1.00;;;;;;5025810;28;20231;-82
2022/12/20 12:07:18;;;;;;;3.10;2.00;;;10.60;1.00;;;;;;5026906;28;20225;-82
2022/12/20 12:10:01;;;;;;;2.13;1.93;;;10.70;1.00;;;;;;5027155;28;20182;-81
2022/12/20 12:12:36;;;;;;;3.20;1.80;;;10.70;1.00;;;;;;5027340;28;20217;-82
2022/12/20 12:15:43;;;;;;;3.37;1.97;;;10.70;1.00;;;;;;5027444;28;20185;-82
2022/12/20 12:18:12;;;;;;;2.70;2.20;;;10.80;1.00;;;;;;5035133;28;20281;-81
2022/12/20 12:20:47;;;;;;;2.53;1.80;;;10.90;1.00;;;;;;5027358;28;20191;-82
2022/12/20 12:23:20;;;;;;;2.57;1.87;;;10.90;1.00;;;;;;5026939;28;20228;-79
2022/12/20 12:25:46;;;;;;;2.03;1.83;;;10.90;1.00;;;;;;5026059;28;20215;-81
2022/12/20 12:28:13;;;;;;;3.87;2.20;;;10.80;1.00;;;;;;5025982;28;20268;-78
2022/12/20 12:30:45;;;;;;;1.60;1.50;;;11.60;1.00;;;;;;5027269;28;20191;-79
2022/12/20 12:33:19;;;;;;;3.20;1.90;;;10.80;1.00;;;;;;5027430;28;20347;-80
2022/12/20 12:36:13;;;;;;;3.27;2.30;;;10.80;1.00;;;;;;5027890;28;20265;-79
2022/12/20 12:38:51;;;;;;;2.70;2.07;;;11.30;1.00;;;;;;5022672;28;20203;-78
2022/12/20 12:41:48;;;;;;;3.53;2.00;;;10.80;1.00;;;;;;5025738;28;20186;-78
2022/12/20 12:44:38;;;;;;;2.90;1.93;;;10.70;1.00;;;;;;5026823;28;20322;-78
2022/12/20 12:47:18;;;;;;;2.75;2.03;;;11.10;1.00;;;;;;5026812;28;20272;-78
2022/12/20 12:49:48;;;;;;;2.30;2.10;;;10.60;1.00;;;;;;5026651;28;20643;-79
2022/12/20 12:52:42;;;;;;;2.63;2.00;;;10.60;1.00;;;;;;5027805;28;20512;-77
2022/12/20 12:55:44;;;;;;;3.33;2.37;;;10.60;1.00;;;;;;5027474;28;20187;-77
2022/12/20 12:58:21;;;;;;;3.93;2.13;;;10.60;1.00;;;;;;5024193;28;20191;-77
2022/12/20 13:00:50;;;;;;;3.43;2.33;;;10.60;1.00;;;;;;5026407;28;20265;-79
2022/12/20 13:03:35;;;;;;;3.07;2.63;;;10.50;1.00;;;;;;5028346;28;20207;-79
2022/12/20 13:06:22;;;;;;;4.07;2.77;;;10.60;1.00;;;;;;5026407;28;20689;-78
2022/12/20 13:08:57;;;;;;;2.40;2.00;;;10.60;1.00;;;;;;5026365;28;20190;-77
2022/12/20 13:11:48;;;;;;;3.67;2.10;;;10.50;1.00;;;;;;5026822;28;20213;-79
2022/12/20 13:14:22;;;;;;;2.60;2.00;;;10.60;1.00;;;;;;5024676;28;20205;-78
2022/12/20 13:16:50;;;;;;;3.93;2.90;;;10.50;1.00;;;;;;5024489;28;20183;-79
2022/12/20 13:19:24;;;;;;;3.23;2.63;;;10.60;1.00;;;;;;5023824;28;20194;-78
2022/12/20 13:22:16;;;;;;;2.53;1.93;;;10.50;1.00;;;;;;5023809;28;20201;-78
2022/12/20 13:24:59;;;;;;;3.73;2.30;;;10.30;1.00;;;;;;5019360;28;20222;-78